sensor_id;sensor_type;location;lat;lon;timestamp;pressure;altitude;pressure_sealevel;temperature;humidity
10940;BME280;5522;42.696;23.494;2023-07-29T00:00:09;53771.38;;;-139.68;100.00
10940;BME280;5522;42.696;23.494;2023-07-29T00:02:36;53743.25;;;-139.68;100.00
10940;BME280;5522;42.696;23.494;2023-07-29T00:05:04;53763.34;;;-139.68;100.00
10940;BME280;5522;42.696;23.494;2023-07-29T00:07:41;53759.31;;;-139.68;100.00
10940;BME280;5522;42.696;23.494;2023-07-29T00:10:08;53771.38;;;-139.68;100.00
10940;BME280;5522;42.696;23.494;2023-07-29T00:12:35;53723.13;;;-139.68;100.00
10940;BME280;5522;42.696;23.494;2023-07-29T00:15:02;53747.25;;;-139.68;100.00
10940;BME280;5522;42.696;23.494;2023-07-29T00:17:29;53743.25;;;-139.68;100.00
10940;BME280;5522;42.696;23.494;2023-07-29T00:19:56;53727.16;;;-139.68;100.00
10940;BME280;5522;42.696;23.494;2023-07-29T00:22:22;53771.38;;;-139.68;100.00
10940;BME280;5522;42.696;23.494;2023-07-29T00:24:53;53759.31;;;-139.68;100.00
10940;BME280;5522;42.696;23.494;2023-07-29T00:27:22;53751.28;;;-139.68;100.00
10940;BME280;5522;42.696;23.494;2023-07-29T00:29:49;53731.19;;;-139.68;100.00
10940;BME280;5522;42.696;23.494;2023-07-29T00:32:19;53767.38;;;-139.68;100.00
10940;BME280;5522;42.696;23.494;2023-07-29T00:34:46;53763.34;;;-139.68;100.00
10940;BME280;5522;42.696;23.494;2023-07-29T00:37:12;53759.31;;;-139.68;100.00
10940;BME280;5522;42.696;23.494;2023-07-29T00:39:39;53745.25;;;-139.68;100.00
10940;BME280;5522;42.696;23.494;2023-07-29T00:42:08;53765.34;;;-139.68;100.00
10940;BME280;5522;42.696;23.494;2023-07-29T00:44:35;53743.25;;;-139.68;100.00
10940;BME280;5522;42.696;23.494;2023-07-29T00:47:05;53757.31;;;-139.68;100.00
10940;BME280;5522;42.696;23.494;2023-07-29T00:49:34;53767.38;;;-139.68;100.00
10940;BME280;5522;42.696;23.494;2023-07-29T00:52:01;53763.34;;;-139.68;100.00
10940;BME280;5522;42.696;23.494;2023-07-29T00:54:28;53755.31;;;-139.68;100.00
10940;BME280;5522;42.696;23.494;2023-07-29T00:56:54;53763.34;;;-139.68;100.00
10940;BME280;5522;42.696;23.494;2023-07-29T00:59:23;53739.22;;;-139.68;100.00
10940;BME280;5522;42.696;23.494;2023-07-29T01:07:18;53757.31;;;-139.68;100.00
10940;BME280;5522;42.696;23.494;2023-07-29T01:09:53;53759.31;;;-139.68;100.00
10940;BME280;5522;42.696;23.494;2023-07-29T01:12:28;53741.22;;;-139.68;100.00
10940;BME280;5522;42.696;23.494;2023-07-29T01:15:06;53731.19;;;-139.68;100.00
10940;BME280;5522;42.696;23.494;2023-07-29T01:17:40;53723.13;;;-139.68;100.00
10940;BME280;5522;42.696;23.494;2023-07-29T01:20:09;53779.44;;;-139.68;100.00
10940;BME280;5522;42.696;23.494;2023-07-29T01:22:38;53741.22;;;-139.68;100.00
10940;BME280;5522;42.696;23.494;2023-07-29T01:25:07;53715.09;;;-139.68;100.00
10940;BME280;5522;42.696;23.494;2023-07-29T01:27:34;53773.41;;;-139.68;100.00
10940;BME280;5522;42.696;23.494;2023-07-29T01:30:01;53771.38;;;-139.68;100.00
10940;BME280;5522;42.696;23.494;2023-07-29T01:32:36;53793.50;;;-139.68;100.00
10940;BME280;5522;42.696;23.494;2023-07-29T01:35:15;53781.44;;;-139.68;100.00
10940;BME280;5522;42.696;23.494;2023-07-29T01:37:48;53753.28;;;-139.68;100.00
10940;BME280;5522;42.696;23.494;2023-07-29T01:40:18;53767.38;;;-139.68;100.00
10940;BME280;5522;42.696;23.494;2023-07-29T01:42:45;53759.31;;;-139.68;100.00
10940;BME280;5522;42.696;23.494;2023-07-29T01:45:12;53755.31;;;-139.68;100.00
10940;BME280;5522;42.696;23.494;2023-07-29T01:47:39;53775.41;;;-139.68;100.00
10940;BME280;5522;42.696;23.494;2023-07-29T01:50:08;53755.31;;;-139.68;100.00
10940;BME280;5522;42.696;23.494;2023-07-29T01:52:34;53755.31;;;-139.68;100.00
10940;BME280;5522;42.696;23.494;2023-07-29T01:55:02;53775.41;;;-139.68;100.00
10940;BME280;5522;42.696;23.494;2023-07-29T01:57:30;53727.16;;;-139.68;100.00
10940;BME280;5522;42.696;23.494;2023-07-29T01:59:57;53771.38;;;-139.68;100.00
10940;BME280;5522;42.696;23.494;2023-07-29T02:02:23;53749.28;;;-139.68;100.00
10940;BME280;5522;42.696;23.494;2023-07-29T02:04:50;53751.28;;;-139.68;100.00
10940;BME280;5522;42.696;23.494;2023-07-29T02:07:18;53755.31;;;-139.68;100.00
10940;BME280;5522;42.696;23.494;2023-07-29T02:09:45;53773.41;;;-139.68;100.00
10940;BME280;5522;42.696;23.494;2023-07-29T02:12:12;53763.34;;;-139.68;100.00
10940;BME280;5522;42.696;23.494;2023-07-29T02:14:43;53795.50;;;-139.68;100.00
10940;BME280;5522;42.696;23.494;2023-07-29T02:17:09;53787.47;;;-139.68;100.00
10940;BME280;5522;42.696;23.494;2023-07-29T02:19:36;53771.38;;;-139.68;100.00
10940;BME280;5522;42.696;23.494;2023-07-29T02:22:03;53783.44;;;-139.68;100.00
10940;BME280;5522;42.696;23.494;2023-07-29T02:24:30;53757.31;;;-139.68;100.00
10940;BME280;5522;42.696;23.494;2023-07-29T02:26:57;53765.34;;;-139.68;100.00
10940;BME280;5522;42.696;23.494;2023-07-29T02:29:24;53757.31;;;-139.68;100.00
10940;BME280;5522;42.696;23.494;2023-07-29T02:31:52;53739.22;;;-139.68;100.00
10940;BME280;5522;42.696;23.494;2023-07-29T02:34:19;53747.25;;;-139.68;100.00
10940;BME280;5522;42.696;23.494;2023-07-29T02:36:48;53793.50;;;-139.68;100.00
10940;BME280;5522;42.696;23.494;2023-07-29T02:39:15;53787.47;;;-139.68;100.00
10940;BME280;5522;42.696;23.494;2023-07-29T02:41:42;53751.28;;;-139.68;100.00
10940;BME280;5522;42.696;23.494;2023-07-29T02:44:09;53771.38;;;-139.68;100.00
10940;BME280;5522;42.696;23.494;2023-07-29T02:46:37;53771.38;;;-139.68;100.00
10940;BME280;5522;42.696;23.494;2023-07-29T02:49:06;53783.44;;;-139.68;100.00
10940;BME280;5522;42.696;23.494;2023-07-29T02:51:32;53763.34;;;-139.68;100.00
10940;BME280;5522;42.696;23.494;2023-07-29T02:53:59;53763.34;;;-139.68;100.00
10940;BME280;5522;42.696;23.494;2023-07-29T02:56:26;53715.09;;;-139.68;100.00
10940;BME280;5522;42.696;23.494;2023-07-29T02:58:53;53727.16;;;-139.68;100.00
10940;BME280;5522;42.696;23.494;2023-07-29T03:01:20;53763.34;;;-139.68;100.00
10940;BME280;5522;42.696;23.494;2023-07-29T03:03:47;53739.22;;;-139.68;100.00
10940;BME280;5522;42.696;23.494;2023-07-29T03:06:15;53747.25;;;-139.68;100.00
10940;BME280;5522;42.696;23.494;2023-07-29T03:08:42;53753.28;;;-139.68;100.00
10940;BME280;5522;42.696;23.494;2023-07-29T03:11:10;53775.41;;;-139.68;100.00
10940;BME280;5522;42.696;23.494;2023-07-29T03:13:37;53755.31;;;-139.68;100.00
10940;BME280;5522;42.696;23.494;2023-07-29T03:16:05;53765.34;;;-139.68;100.00
10940;BME280;5522;42.696;23.494;2023-07-29T03:18:32;53731.19;;;-139.68;100.00
10940;BME280;5522;42.696;23.494;2023-07-29T03:20:59;53751.28;;;-139.68;100.00
10940;BME280;5522;42.696;23.494;2023-07-29T03:23:28;53739.22;;;-139.68;100.00
10940;BME280;5522;42.696;23.494;2023-07-29T03:25:55;53741.22;;;-139.68;100.00
10940;BME280;5522;42.696;23.494;2023-07-29T03:28:23;53765.34;;;-139.68;100.00
10940;BME280;5522;42.696;23.494;2023-07-29T03:30:50;53777.41;;;-139.68;100.00
10940;BME280;5522;42.696;23.494;2023-07-29T03:33:17;53781.44;;;-139.68;100.00
10940;BME280;5522;42.696;23.494;2023-07-29T03:35:44;53787.47;;;-139.68;100.00
10940;BME280;5522;42.696;23.494;2023-07-29T03:38:11;53755.31;;;-139.68;100.00
10940;BME280;5522;42.696;23.494;2023-07-29T03:40:40;53759.31;;;-139.68;100.00
10940;BME280;5522;42.696;23.494;2023-07-29T03:43:07;53791.50;;;-139.68;100.00
10940;BME280;5522;42.696;23.494;2023-07-29T03:45:34;53779.44;;;-139.68;100.00
10940;BME280;5522;42.696;23.494;2023-07-29T03:48:02;53747.25;;;-139.68;100.00
10940;BME280;5522;42.696;23.494;2023-07-29T03:50:29;53791.50;;;-139.68;100.00
10940;BME280;5522;42.696;23.494;2023-07-29T03:52:56;53779.44;;;-139.68;100.00
10940;BME280;5522;42.696;23.494;2023-07-29T03:55:23;53789.47;;;-139.68;100.00
10940;BME280;5522;42.696;23.494;2023-07-29T03:57:51;53773.41;;;-139.68;100.00
10940;BME280;5522;42.696;23.494;2023-07-29T04:00:18;53777.41;;;-139.68;100.00
10940;BME280;5522;42.696;23.494;2023-07-29T04:02:46;53819.63;;;-139.68;100.00
10940;BME280;5522;42.696;23.494;2023-07-29T04:05:13;53763.34;;;-139.68;100.00
10940;BME280;5522;42.696;23.494;2023-07-29T04:07:40;53787.47;;;-139.68;100.00
10940;BME280;5522;42.696;23.494;2023-07-29T04:10:08;53749.28;;;-139.68;100.00
10940;BME280;5522;42.696;23.494;2023-07-29T04:12:35;53813.59;;;-139.68;100.00
10940;BME280;5522;42.696;23.494;2023-07-29T04:15:03;53743.25;;;-139.68;100.00
10940;BME280;5522;42.696;23.494;2023-07-29T04:17:30;53799.53;;;-139.68;100.00
10940;BME280;5522;42.696;23.494;2023-07-29T04:19:57;53827.69;;;-139.68;93.94
10940;BME280;5522;42.696;23.494;2023-07-29T04:22:24;53785.47;;;-139.68;91.88
10940;BME280;5522;42.696;23.494;2023-07-29T04:24:51;53799.53;;;-139.68;85.02
10940;BME280;5522;42.696;23.494;2023-07-29T04:27:18;53825.66;;;-139.68;77.17
10940;BME280;5522;42.696;23.494;2023-07-29T04:29:45;53795.50;;;-139.68;69.10
10940;BME280;5522;42.696;23.494;2023-07-29T04:32:13;53803.56;;;-139.68;65.40
10940;BME280;5522;42.696;23.494;2023-07-29T04:34:40;53803.56;;;-139.68;61.19
10940;BME280;5522;42.696;23.494;2023-07-29T04:37:07;53803.56;;;-139.68;58.38
10940;BME280;5522;42.696;23.494;2023-07-29T04:39:33;53839.75;;;-139.68;52.69
10940;BME280;5522;42.696;23.494;2023-07-29T04:42:00;53831.69;;;-139.68;47.83
10940;BME280;5522;42.696;23.494;2023-07-29T04:44:27;53831.69;;;-139.68;44.58
10940;BME280;5522;42.696;23.494;2023-07-29T04:46:54;53823.66;;;-139.68;44.08
10940;BME280;5522;42.696;23.494;2023-07-29T04:49:22;53821.66;;;-139.68;41.15
10940;BME280;5522;42.696;23.494;2023-07-29T04:51:49;53857.84;;;-139.68;38.98
10940;BME280;5522;42.696;23.494;2023-07-29T04:54:16;53823.66;;;-139.68;38.03
10940;BME280;5522;42.696;23.494;2023-07-29T04:56:46;53827.69;;;-139.68;36.85
10940;BME280;5522;42.696;23.494;2023-07-29T04:59:12;53841.75;;;-139.68;35.77
10940;BME280;5522;42.696;23.494;2023-07-29T05:01:39;53855.81;;;-139.68;34.82
10940;BME280;5522;42.696;23.494;2023-07-29T05:04:07;53837.72;;;-139.68;34.82
10940;BME280;5522;42.696;23.494;2023-07-29T05:06:36;53847.78;;;-139.68;33.55
10940;BME280;5522;42.696;23.494;2023-07-29T05:09:12;53833.72;;;-139.68;33.58
10940;BME280;5522;42.696;23.494;2023-07-29T05:11:39;53867.88;;;-139.68;33.14
10940;BME280;5522;42.696;23.494;2023-07-29T05:14:06;53857.84;;;-139.68;32.73
10940;BME280;5522;42.696;23.494;2023-07-29T05:16:35;53851.81;;;-139.68;33.17
10940;BME280;5522;42.696;23.494;2023-07-29T05:19:01;53859.84;;;-139.68;33.17
10940;BME280;5522;42.696;23.494;2023-07-29T05:21:28;53871.91;;;-139.68;32.47
10940;BME280;5522;42.696;23.494;2023-07-29T05:23:57;53833.72;;;-139.68;32.03
10940;BME280;5522;42.696;23.494;2023-07-29T05:26:23;53821.66;;;-139.68;32.81
10940;BME280;5522;42.696;23.494;2023-07-29T05:28:50;53849.78;;;-139.68;32.75
10940;BME280;5522;42.696;23.494;2023-07-29T05:31:17;53867.88;;;-139.68;32.48
10940;BME280;5522;42.696;23.494;2023-07-29T05:33:44;53865.88;;;-139.68;31.31
10940;BME280;5522;42.696;23.494;2023-07-29T05:36:11;53865.88;;;-139.68;31.10
10940;BME280;5522;42.696;23.494;2023-07-29T05:38:37;53813.59;;;-139.68;31.60
10940;BME280;5522;42.696;23.494;2023-07-29T05:41:06;53859.84;;;-139.68;31.44
10940;BME280;5522;42.696;23.494;2023-07-29T05:43:32;53863.88;;;-139.68;30.51
10940;BME280;5522;42.696;23.494;2023-07-29T05:45:59;53845.78;;;-139.68;31.16
10940;BME280;5522;42.696;23.494;2023-07-29T05:48:27;53859.84;;;-139.68;30.99
10940;BME280;5522;42.696;23.494;2023-07-29T05:50:53;53859.84;;;-139.68;30.52
10940;BME280;5522;42.696;23.494;2023-07-29T05:53:20;53843.75;;;-139.68;30.27
10940;BME280;5522;42.696;23.494;2023-07-29T05:55:47;53879.94;;;-139.68;31.45
10940;BME280;5522;42.696;23.494;2023-07-29T05:58:15;53831.69;;;-139.68;30.66
10940;BME280;5522;42.696;23.494;2023-07-29T06:00:42;53873.91;;;-139.68;30.27
10940;BME280;5522;42.696;23.494;2023-07-29T06:03:09;53835.72;;;-139.68;29.33
10940;BME280;5522;42.696;23.494;2023-07-29T06:05:36;53867.88;;;-139.68;29.46
10940;BME280;5522;42.696;23.494;2023-07-29T06:08:03;53883.97;;;-139.68;30.37
10940;BME280;5522;42.696;23.494;2023-07-29T06:10:30;53877.94;;;-139.68;29.24
10940;BME280;5522;42.696;23.494;2023-07-29T06:12:57;53827.69;;;-139.68;29.22
10940;BME280;5522;42.696;23.494;2023-07-29T06:18:30;53847.78;;;-139.68;27.82
10940;BME280;5522;42.696;23.494;2023-07-29T06:20:59;53855.81;;;-139.68;28.53
10940;BME280;5522;42.696;23.494;2023-07-29T06:23:25;53879.94;;;-139.68;28.49
10940;BME280;5522;42.696;23.494;2023-07-29T06:25:52;53843.75;;;-139.68;30.20
10940;BME280;5522;42.696;23.494;2023-07-29T06:28:19;53859.84;;;-139.68;30.07
10940;BME280;5522;42.696;23.494;2023-07-29T06:30:46;53855.81;;;-139.68;30.22
10940;BME280;5522;42.696;23.494;2023-07-29T06:33:13;53823.66;;;-139.68;31.34
10940;BME280;5522;42.696;23.494;2023-07-29T06:35:41;53853.81;;;-139.68;29.53
10940;BME280;5522;42.696;23.494;2023-07-29T06:38:08;53851.81;;;-139.68;30.24
10940;BME280;5522;42.696;23.494;2023-07-29T06:40:35;53863.88;;;-139.68;29.32
10940;BME280;5522;42.696;23.494;2023-07-29T06:43:01;53863.88;;;-139.68;29.75
10940;BME280;5522;42.696;23.494;2023-07-29T06:45:28;53839.75;;;-139.68;29.35
10940;BME280;5522;42.696;23.494;2023-07-29T06:47:55;53831.69;;;-139.68;29.77
10940;BME280;5522;42.696;23.494;2023-07-29T06:50:22;53833.72;;;-139.68;29.80
10940;BME280;5522;42.696;23.494;2023-07-29T06:52:50;53787.47;;;-139.68;28.46
10940;BME280;5522;42.696;23.494;2023-07-29T06:55:17;53847.78;;;-139.68;29.43
10940;BME280;5522;42.696;23.494;2023-07-29T06:57:44;53839.75;;;-139.68;29.33
10940;BME280;5522;42.696;23.494;2023-07-29T07:00:11;53847.78;;;-139.68;29.85
10940;BME280;5522;42.696;23.494;2023-07-29T07:02:37;53863.88;;;-139.68;29.29
10940;BME280;5522;42.696;23.494;2023-07-29T07:05:05;53843.75;;;-139.68;29.65
10940;BME280;5522;42.696;23.494;2023-07-29T07:07:32;53873.91;;;-139.68;28.32
10940;BME280;5522;42.696;23.494;2023-07-29T07:10:00;53839.75;;;-139.68;28.38
10940;BME280;5522;42.696;23.494;2023-07-29T07:12:27;53831.69;;;-139.68;28.52
10940;BME280;5522;42.696;23.494;2023-07-29T07:14:54;53847.78;;;-139.68;27.69
10940;BME280;5522;42.696;23.494;2023-07-29T07:17:20;53807.56;;;-139.68;28.10
10940;BME280;5522;42.696;23.494;2023-07-29T07:19:47;53793.50;;;-139.68;28.69
10940;BME280;5522;42.696;23.494;2023-07-29T07:22:15;53817.63;;;-139.68;29.11
10940;BME280;5522;42.696;23.494;2023-07-29T07:24:44;53861.84;;;-139.68;28.42
10940;BME280;5522;42.696;23.494;2023-07-29T07:27:12;53831.69;;;-139.68;27.98
10940;BME280;5522;42.696;23.494;2023-07-29T07:29:39;53829.69;;;-139.68;27.19
10940;BME280;5522;42.696;23.494;2023-07-29T07:32:06;53811.59;;;-139.68;27.02
10940;BME280;5522;42.696;23.494;2023-07-29T07:34:33;53849.78;;;-139.68;27.26
10940;BME280;5522;42.696;23.494;2023-07-29T07:37:00;53871.91;;;-139.68;27.54
10940;BME280;5522;42.696;23.494;2023-07-29T07:39:27;53863.88;;;-139.68;27.55
10940;BME280;5522;42.696;23.494;2023-07-29T07:41:54;53819.63;;;-139.68;27.27
10940;BME280;5522;42.696;23.494;2023-07-29T07:44:22;53851.81;;;-139.68;26.73
10940;BME280;5522;42.696;23.494;2023-07-29T07:46:51;53837.72;;;-139.68;26.46
10940;BME280;5522;42.696;23.494;2023-07-29T07:49:19;53833.72;;;-139.68;27.39
10940;BME280;5522;42.696;23.494;2023-07-29T07:51:45;53847.78;;;-139.68;26.26
10940;BME280;5522;42.696;23.494;2023-07-29T07:54:12;53855.81;;;-139.68;26.71
10940;BME280;5522;42.696;23.494;2023-07-29T07:56:39;53825.66;;;-139.68;26.63
10940;BME280;5522;42.696;23.494;2023-07-29T07:59:06;53823.66;;;-139.68;26.26
10940;BME280;5522;42.696;23.494;2023-07-29T08:01:36;53813.59;;;-139.68;26.34
10940;BME280;5522;42.696;23.494;2023-07-29T08:04:03;53831.69;;;-139.68;25.28
10940;BME280;5522;42.696;23.494;2023-07-29T08:06:30;53855.81;;;-139.68;25.72
10940;BME280;5522;42.696;23.494;2023-07-29T08:08:57;53831.69;;;-139.68;26.34
10940;BME280;5522;42.696;23.494;2023-07-29T08:11:25;53861.84;;;-139.68;25.72
10940;BME280;5522;42.696;23.494;2023-07-29T08:13:52;53831.69;;;-139.68;26.52
10940;BME280;5522;42.696;23.494;2023-07-29T08:16:19;53835.72;;;-139.68;25.70
10940;BME280;5522;42.696;23.494;2023-07-29T08:18:47;53855.81;;;-139.68;25.46
10940;BME280;5522;42.696;23.494;2023-07-29T08:21:14;53827.69;;;-139.68;25.61
10940;BME280;5522;42.696;23.494;2023-07-29T08:23:41;53821.66;;;-139.68;24.28
10940;BME280;5522;42.696;23.494;2023-07-29T08:26:08;53793.50;;;-139.68;22.96
10940;BME280;5522;42.696;23.494;2023-07-29T08:28:36;53817.63;;;-139.68;23.77
10940;BME280;5522;42.696;23.494;2023-07-29T08:31:03;53825.66;;;-139.68;24.69
10940;BME280;5522;42.696;23.494;2023-07-29T08:33:30;53835.72;;;-139.68;24.57
10940;BME280;5522;42.696;23.494;2023-07-29T08:36:00;53819.63;;;-139.68;23.58
10940;BME280;5522;42.696;23.494;2023-07-29T08:38:27;53785.47;;;-139.68;22.44
10940;BME280;5522;42.696;23.494;2023-07-29T08:40:59;53813.59;;;-139.68;22.66
10940;BME280;5522;42.696;23.494;2023-07-29T08:43:32;53795.50;;;-139.68;23.98
10940;BME280;5522;42.696;23.494;2023-07-29T08:45:59;53819.63;;;-139.68;23.48
10940;BME280;5522;42.696;23.494;2023-07-29T08:48:33;53819.63;;;-139.68;22.82
10940;BME280;5522;42.696;23.494;2023-07-29T08:51:04;53825.66;;;-139.68;22.29
10940;BME280;5522;42.696;23.494;2023-07-29T08:53:31;53819.63;;;-139.68;21.56
10940;BME280;5522;42.696;23.494;2023-07-29T08:55:59;53811.59;;;-139.68;21.79
10940;BME280;5522;42.696;23.494;2023-07-29T08:58:26;53807.56;;;-139.68;21.29
10940;BME280;5522;42.696;23.494;2023-07-29T09:00:54;53831.69;;;-139.68;22.59
10940;BME280;5522;42.696;23.494;2023-07-29T09:03:21;53795.50;;;-139.68;21.64
10940;BME280;5522;42.696;23.494;2023-07-29T09:05:48;53787.47;;;-139.68;21.47
10940;BME280;5522;42.696;23.494;2023-07-29T09:08:17;53803.56;;;-139.68;21.08
10940;BME280;5522;42.696;23.494;2023-07-29T09:10:44;53811.59;;;-139.68;21.67
10940;BME280;5522;42.696;23.494;2023-07-29T09:13:11;53793.50;;;-139.68;20.96
10940;BME280;5522;42.696;23.494;2023-07-29T09:15:38;53795.50;;;-139.68;21.40
10940;BME280;5522;42.696;23.494;2023-07-29T09:18:12;53795.50;;;-139.68;20.64
10940;BME280;5522;42.696;23.494;2023-07-29T09:20:39;53783.44;;;-139.68;22.57
10940;BME280;5522;42.696;23.494;2023-07-29T09:23:08;53785.47;;;-139.68;22.35
10940;BME280;5522;42.696;23.494;2023-07-29T09:25:37;53781.44;;;-139.68;20.24
10940;BME280;5522;42.696;23.494;2023-07-29T09:28:08;53811.59;;;-139.68;21.36
10940;BME280;5522;42.696;23.494;2023-07-29T09:30:35;53775.41;;;-139.68;20.42
10940;BME280;5522;42.696;23.494;2023-07-29T09:33:02;53803.56;;;-139.68;21.12
10940;BME280;5522;42.696;23.494;2023-07-29T09:35:32;53791.50;;;-139.68;22.27
10940;BME280;5522;42.696;23.494;2023-07-29T09:37:59;53799.53;;;-139.68;21.65
10940;BME280;5522;42.696;23.494;2023-07-29T09:40:26;53783.44;;;-139.68;21.97
10940;BME280;5522;42.696;23.494;2023-07-29T09:42:55;53779.44;;;-139.68;22.05
10940;BME280;5522;42.696;23.494;2023-07-29T09:45:23;53771.38;;;-139.68;20.62
10940;BME280;5522;42.696;23.494;2023-07-29T09:47:50;53783.44;;;-139.68;20.69
10940;BME280;5522;42.696;23.494;2023-07-29T09:50:17;53803.56;;;-139.68;20.66
10940;BME280;5522;42.696;23.494;2023-07-29T09:52:44;53799.53;;;-139.68;21.65
10940;BME280;5522;42.696;23.494;2023-07-29T09:55:12;53833.72;;;-139.68;21.25
10940;BME280;5522;42.696;23.494;2023-07-29T09:57:40;53803.56;;;-139.68;21.93
10940;BME280;5522;42.696;23.494;2023-07-29T10:00:11;53847.78;;;-139.68;21.46
10940;BME280;5522;42.696;23.494;2023-07-29T10:02:39;53892.00;;;-139.68;22.98
10940;BME280;5522;42.696;23.494;2023-07-29T10:05:07;53837.72;;;-139.68;23.63
10940;BME280;5522;42.696;23.494;2023-07-29T10:07:35;53859.84;;;-139.68;22.49
10940;BME280;5522;42.696;23.494;2023-07-29T10:10:04;53902.06;;;-139.68;23.30
10940;BME280;5522;42.696;23.494;2023-07-29T10:12:32;53865.88;;;-139.68;23.75
10940;BME280;5522;42.696;23.494;2023-07-29T10:14:59;53835.72;;;-139.68;24.90
10940;BME280;5522;42.696;23.494;2023-07-29T10:17:28;53863.88;;;-139.68;26.96
10940;BME280;5522;42.696;23.494;2023-07-29T10:19:56;53885.97;;;-139.68;27.91
10940;BME280;5522;42.696;23.494;2023-07-29T10:22:25;53918.16;;;-139.68;27.13
10940;BME280;5522;42.696;23.494;2023-07-29T10:24:59;53883.97;;;-139.68;28.64
10940;BME280;5522;42.696;23.494;2023-07-29T10:27:31;53865.88;;;-139.68;28.06
10940;BME280;5522;42.696;23.494;2023-07-29T10:30:00;53859.84;;;-139.68;27.86
10940;BME280;5522;42.696;23.494;2023-07-29T10:32:30;53861.84;;;-139.68;27.39
10940;BME280;5522;42.696;23.494;2023-07-29T10:34:57;53900.06;;;-139.68;29.44
10940;BME280;5522;42.696;23.494;2023-07-29T10:37:24;53879.94;;;-139.68;26.49
10940;BME280;5522;42.696;23.494;2023-07-29T10:39:53;53896.03;;;-139.68;27.83
10940;BME280;5522;42.696;23.494;2023-07-29T10:42:20;53845.78;;;-139.68;27.90
10940;BME280;5522;42.696;23.494;2023-07-29T10:44:49;53892.00;;;-139.68;27.30
10940;BME280;5522;42.696;23.494;2023-07-29T10:47:18;53888.00;;;-139.68;25.97
10940;BME280;5522;42.696;23.494;2023-07-29T10:49:49;53871.91;;;-139.68;28.42
10940;BME280;5522;42.696;23.494;2023-07-29T10:52:28;53827.69;;;-139.68;26.11
10940;BME280;5522;42.696;23.494;2023-07-29T10:54:55;53863.88;;;-139.68;26.12
10940;BME280;5522;42.696;23.494;2023-07-29T10:57:31;53926.19;;;-139.68;26.22
10940;BME280;5522;42.696;23.494;2023-07-29T10:59:59;53888.00;;;-139.68;27.11
10940;BME280;5522;42.696;23.494;2023-07-29T11:02:29;53867.88;;;-139.68;26.20
10940;BME280;5522;42.696;23.494;2023-07-29T11:04:58;53871.91;;;-139.68;26.70
10940;BME280;5522;42.696;23.494;2023-07-29T11:07:26;53875.94;;;-139.68;26.36
10940;BME280;5522;42.696;23.494;2023-07-29T11:09:59;53871.91;;;-139.68;27.05
10940;BME280;5522;42.696;23.494;2023-07-29T11:12:40;53867.88;;;-139.68;27.37
10940;BME280;5522;42.696;23.494;2023-07-29T11:15:28;53859.84;;;-139.68;26.33
10940;BME280;5522;42.696;23.494;2023-07-29T11:17:56;53877.94;;;-139.68;26.28
10940;BME280;5522;42.696;23.494;2023-07-29T11:20:26;53863.88;;;-139.68;26.85
10940;BME280;5522;42.696;23.494;2023-07-29T11:22:54;53847.78;;;-139.68;26.17
10940;BME280;5522;42.696;23.494;2023-07-29T11:25:23;53873.91;;;-139.68;25.73
10940;BME280;5522;42.696;23.494;2023-07-29T11:27:51;53849.78;;;-139.68;26.05
10940;BME280;5522;42.696;23.494;2023-07-29T11:30:19;53855.81;;;-139.68;26.49
10940;BME280;5522;42.696;23.494;2023-07-29T11:32:46;53855.81;;;-139.68;26.78
10940;BME280;5522;42.696;23.494;2023-07-29T11:35:14;53841.75;;;-139.68;26.64
10940;BME280;5522;42.696;23.494;2023-07-29T11:37:44;53863.88;;;-139.68;25.33
10940;BME280;5522;42.696;23.494;2023-07-29T11:40:14;53879.94;;;-139.68;26.23
10940;BME280;5522;42.696;23.494;2023-07-29T11:42:41;53875.94;;;-139.68;26.46
10940;BME280;5522;42.696;23.494;2023-07-29T11:45:09;53861.84;;;-139.68;26.53
10940;BME280;5522;42.696;23.494;2023-07-29T11:47:36;53890.00;;;-139.68;28.99
10940;BME280;5522;42.696;23.494;2023-07-29T11:50:04;53839.75;;;-139.68;28.38
10940;BME280;5522;42.696;23.494;2023-07-29T11:52:32;53867.88;;;-139.68;26.96
10940;BME280;5522;42.696;23.494;2023-07-29T11:55:02;53839.75;;;-139.68;26.87
10940;BME280;5522;42.696;23.494;2023-07-29T11:57:30;53851.81;;;-139.68;25.79
10940;BME280;5522;42.696;23.494;2023-07-29T11:59:57;53821.66;;;-139.68;26.59
10940;BME280;5522;42.696;23.494;2023-07-29T12:02:24;53863.88;;;-139.68;27.02
10940;BME280;5522;42.696;23.494;2023-07-29T12:04:52;53879.94;;;-139.68;27.63
10940;BME280;5522;42.696;23.494;2023-07-29T12:07:19;53839.75;;;-139.68;27.46
10940;BME280;5522;42.696;23.494;2023-07-29T12:09:46;53833.72;;;-139.68;27.98
10940;BME280;5522;42.696;23.494;2023-07-29T12:12:15;53857.84;;;-139.68;27.32
10940;BME280;5522;42.696;23.494;2023-07-29T12:14:44;53879.94;;;-139.68;27.73
10940;BME280;5522;42.696;23.494;2023-07-29T12:17:12;53849.78;;;-139.68;26.59
10940;BME280;5522;42.696;23.494;2023-07-29T12:19:39;53851.81;;;-139.68;27.30
10940;BME280;5522;42.696;23.494;2023-07-29T12:22:08;53835.72;;;-139.68;28.18
10940;BME280;5522;42.696;23.494;2023-07-29T12:24:36;53851.81;;;-139.68;26.37
10940;BME280;5522;42.696;23.494;2023-07-29T12:27:04;53843.75;;;-139.68;25.48
10940;BME280;5522;42.696;23.494;2023-07-29T12:29:32;53831.69;;;-139.68;25.29
10940;BME280;5522;42.696;23.494;2023-07-29T12:32:06;53799.53;;;-139.68;26.33
10940;BME280;5522;42.696;23.494;2023-07-29T12:34:34;53839.75;;;-139.68;26.93
10940;BME280;5522;42.696;23.494;2023-07-29T12:37:03;53847.78;;;-139.68;26.44
10940;BME280;5522;42.696;23.494;2023-07-29T12:39:32;53855.81;;;-139.68;24.94
10940;BME280;5522;42.696;23.494;2023-07-29T12:42:01;53877.94;;;-139.68;26.68
10940;BME280;5522;42.696;23.494;2023-07-29T12:44:30;53839.75;;;-139.68;27.33
10940;BME280;5522;42.696;23.494;2023-07-29T12:46:59;53827.69;;;-139.68;26.44